sensor_id;sensor_type;location;lat;lon;timestamp;temperature;humidity
12655;DHT22;6392;44.644;11.448;2022-11-15T00:02:21;8.80;99.90
12655;DHT22;6392;44.644;11.448;2022-11-15T00:04:48;8.80;99.90
12655;DHT22;6392;44.644;11.448;2022-11-15T00:07:15;8.80;99.90
12655;DHT22;6392;44.644;11.448;2022-11-15T00:09:44;8.80;99.90
12655;DHT22;6392;44.644;11.448;2022-11-15T00:12:11;8.90;99.90
12655;DHT22;6392;44.644;11.448;2022-11-15T00:14:38;8.90;99.90
12655;DHT22;6392;44.644;11.448;2022-11-15T00:17:05;8.80;99.90
12655;DHT22;6392;44.644;11.448;2022-11-15T00:19:32;8.80;99.90
12655;DHT22;6392;44.644;11.448;2022-11-15T00:21:59;8.80;99.90
12655;DHT22;6392;44.644;11.448;2022-11-15T00:24:26;8.80;99.90
12655;DHT22;6392;44.644;11.448;2022-11-15T00:26:55;8.80;99.90
12655;DHT22;6392;44.644;11.448;2022-11-15T00:29:23;8.80;99.90
12655;DHT22;6392;44.644;11.448;2022-11-15T00:31:50;8.80;99.90
12655;DHT22;6392;44.644;11.448;2022-11-15T00:34:17;8.70;99.90
12655;DHT22;6392;44.644;11.448;2022-11-15T00:36:44;8.70;99.90
12655;DHT22;6392;44.644;11.448;2022-11-15T00:39:11;8.60;99.90
12655;DHT22;6392;44.644;11.448;2022-11-15T00:41:38;8.60;99.90
12655;DHT22;6392;44.644;11.448;2022-11-15T00:44:07;8.60;99.90
12655;DHT22;6392;44.644;11.448;2022-11-15T00:46:34;8.60;99.90
12655;DHT22;6392;44.644;11.448;2022-11-15T00:49:01;8.60;99.90
12655;DHT22;6392;44.644;11.448;2022-11-15T00:51:28;8.50;99.90
12655;DHT22;6392;44.644;11.448;2022-11-15T00:53:55;8.50;99.90
12655;DHT22;6392;44.644;11.448;2022-11-15T00:56:22;8.40;99.90
12655;DHT22;6392;44.644;11.448;2022-11-15T00:58:49;8.30;99.90
12655;DHT22;6392;44.644;11.448;2022-11-15T01:01:18;8.30;99.90
12655;DHT22;6392;44.644;11.448;2022-11-15T01:03:45;8.30;99.90
12655;DHT22;6392;44.644;11.448;2022-11-15T01:06:12;8.30;99.90
12655;DHT22;6392;44.644;11.448;2022-11-15T01:08:40;8.30;99.90
12655;DHT22;6392;44.644;11.448;2022-11-15T01:11:08;8.20;99.90
12655;DHT22;6392;44.644;11.448;2022-11-15T01:13:36;8.20;99.90
12655;DHT22;6392;44.644;11.448;2022-11-15T01:16:09;8.20;99.90
12655;DHT22;6392;44.644;11.448;2022-11-15T01:18:38;8.30;99.90
12655;DHT22;6392;44.644;11.448;2022-11-15T01:21:06;8.30;99.90
12655;DHT22;6392;44.644;11.448;2022-11-15T01:23:33;8.30;99.90
12655;DHT22;6392;44.644;11.448;2022-11-15T01:26:01;8.30;99.90
12655;DHT22;6392;44.644;11.448;2022-11-15T01:28:30;8.20;99.90
12655;DHT22;6392;44.644;11.448;2022-11-15T01:30:59;8.20;99.90
12655;DHT22;6392;44.644;11.448;2022-11-15T01:33:26;8.10;99.90
12655;DHT22;6392;44.644;11.448;2022-11-15T01:35:55;8.10;99.90
12655;DHT22;6392;44.644;11.448;2022-11-15T01:38:22;8.20;99.90
12655;DHT22;6392;44.644;11.448;2022-11-15T01:40:50;8.20;99.90
12655;DHT22;6392;44.644;11.448;2022-11-15T01:43:22;8.10;99.90
12655;DHT22;6392;44.644;11.448;2022-11-15T01:45:52;8.20;99.90
12655;DHT22;6392;44.644;11.448;2022-11-15T01:48:23;8.20;99.90
12655;DHT22;6392;44.644;11.448;2022-11-15T01:50:52;8.20;99.90
12655;DHT22;6392;44.644;11.448;2022-11-15T01:53:21;8.10;99.90
12655;DHT22;6392;44.644;11.448;2022-11-15T01:55:50;8.10;99.90
12655;DHT22;6392;44.644;11.448;2022-11-15T01:58:17;8.10;99.90
12655;DHT22;6392;44.644;11.448;2022-11-15T02:00:44;8.10;99.90
12655;DHT22;6392;44.644;11.448;2022-11-15T02:03:13;8.10;99.90
12655;DHT22;6392;44.644;11.448;2022-11-15T02:05:41;8.10;99.90
12655;DHT22;6392;44.644;11.448;2022-11-15T02:08:09;8.10;99.90
12655;DHT22;6392;44.644;11.448;2022-11-15T02:10:47;8.10;99.90
12655;DHT22;6392;44.644;11.448;2022-11-15T02:13:14;8.10;99.90
12655;DHT22;6392;44.644;11.448;2022-11-15T02:15:51;8.10;99.90
12655;DHT22;6392;44.644;11.448;2022-11-15T02:18:24;8.10;99.90
12655;DHT22;6392;44.644;11.448;2022-11-15T02:21:02;8.00;99.90
12655;DHT22;6392;44.644;11.448;2022-11-15T02:24:02;8.00;99.90
12655;DHT22;6392;44.644;11.448;2022-11-15T02:32:40;8.10;99.90
12655;DHT22;6392;44.644;11.448;2022-11-15T02:35:18;8.10;99.90
12655;DHT22;6392;44.644;11.448;2022-11-15T02:37:53;8.10;99.90
12655;DHT22;6392;44.644;11.448;2022-11-15T02:40:27;8.10;99.90
12655;DHT22;6392;44.644;11.448;2022-11-15T02:42:59;8.00;99.90
12655;DHT22;6392;44.644;11.448;2022-11-15T02:45:47;8.00;99.90
12655;DHT22;6392;44.644;11.448;2022-11-15T02:48:18;8.00;99.90
12655;DHT22;6392;44.644;11.448;2022-11-15T02:50:46;8.10;99.90
12655;DHT22;6392;44.644;11.448;2022-11-15T02:53:14;8.10;99.90
12655;DHT22;6392;44.644;11.448;2022-11-15T02:55:43;8.10;99.90
12655;DHT22;6392;44.644;11.448;2022-11-15T03:01:17;8.10;99.90
12655;DHT22;6392;44.644;11.448;2022-11-15T03:03:59;8.10;99.90
12655;DHT22;6392;44.644;11.448;2022-11-15T03:06:34;8.00;99.90
12655;DHT22;6392;44.644;11.448;2022-11-15T03:09:05;7.90;99.90
12655;DHT22;6392;44.644;11.448;2022-11-15T03:11:36;7.80;99.90
12655;DHT22;6392;44.644;11.448;2022-11-15T03:14:14;7.90;99.90
12655;DHT22;6392;44.644;11.448;2022-11-15T03:16:48;7.90;99.90
12655;DHT22;6392;44.644;11.448;2022-11-15T03:19:23;7.80;99.90
12655;DHT22;6392;44.644;11.448;2022-11-15T03:21:55;7.90;99.90
12655;DHT22;6392;44.644;11.448;2022-11-15T03:24:24;7.90;99.90
12655;DHT22;6392;44.644;11.448;2022-11-15T03:26:54;7.90;99.90
12655;DHT22;6392;44.644;11.448;2022-11-15T03:29:24;8.00;99.90
12655;DHT22;6392;44.644;11.448;2022-11-15T03:31:56;8.00;99.90
12655;DHT22;6392;44.644;11.448;2022-11-15T03:34:29;8.00;99.90
12655;DHT22;6392;44.644;11.448;2022-11-15T03:36:59;7.90;99.90
12655;DHT22;6392;44.644;11.448;2022-11-15T03:39:26;7.80;99.90
12655;DHT22;6392;44.644;11.448;2022-11-15T03:42:01;7.70;99.90
12655;DHT22;6392;44.644;11.448;2022-11-15T03:44:38;7.60;99.90
12655;DHT22;6392;44.644;11.448;2022-11-15T03:47:11;7.50;99.90
12655;DHT22;6392;44.644;11.448;2022-11-15T03:49:44;7.60;99.90
12655;DHT22;6392;44.644;11.448;2022-11-15T03:52:14;7.60;99.90
12655;DHT22;6392;44.644;11.448;2022-11-15T03:54:52;7.50;99.90
12655;DHT22;6392;44.644;11.448;2022-11-15T03:57:19;7.50;99.90
12655;DHT22;6392;44.644;11.448;2022-11-15T03:59:46;7.50;99.90
12655;DHT22;6392;44.644;11.448;2022-11-15T04:02:14;7.60;99.90
12655;DHT22;6392;44.644;11.448;2022-11-15T04:04:42;7.70;99.90
12655;DHT22;6392;44.644;11.448;2022-11-15T04:07:09;7.60;99.90
12655;DHT22;6392;44.644;11.448;2022-11-15T04:09:36;7.60;99.90
12655;DHT22;6392;44.644;11.448;2022-11-15T04:12:24;7.60;99.90
12655;DHT22;6392;44.644;11.448;2022-11-15T04:14:58;7.50;99.90
12655;DHT22;6392;44.644;11.448;2022-11-15T04:17:37;7.50;99.90
12655;DHT22;6392;44.644;11.448;2022-11-15T04:20:08;7.50;99.90
12655;DHT22;6392;44.644;11.448;2022-11-15T04:22:54;7.60;99.90
12655;DHT22;6392;44.644;11.448;2022-11-15T04:25:39;7.60;99.90
12655;DHT22;6392;44.644;11.448;2022-11-15T04:28:06;7.50;99.90
12655;DHT22;6392;44.644;11.448;2022-11-15T04:30:34;7.50;99.90
12655;DHT22;6392;44.644;11.448;2022-11-15T04:33:01;7.50;99.90
12655;DHT22;6392;44.644;11.448;2022-11-15T04:35:29;7.30;99.90
12655;DHT22;6392;44.644;11.448;2022-11-15T04:37:57;7.20;99.90
12655;DHT22;6392;44.644;11.448;2022-11-15T04:40:23;7.10;99.90
12655;DHT22;6392;44.644;11.448;2022-11-15T04:42:50;7.10;99.90
12655;DHT22;6392;44.644;11.448;2022-11-15T04:45:18;7.00;99.90
12655;DHT22;6392;44.644;11.448;2022-11-15T04:47:46;7.00;99.90
12655;DHT22;6392;44.644;11.448;2022-11-15T04:50:13;7.00;99.90
12655;DHT22;6392;44.644;11.448;2022-11-15T04:52:43;6.90;99.90
12655;DHT22;6392;44.644;11.448;2022-11-15T04:55:11;7.00;99.90
12655;DHT22;6392;44.644;11.448;2022-11-15T04:57:38;7.10;99.90
12655;DHT22;6392;44.644;11.448;2022-11-15T05:00:08;7.10;99.90
12655;DHT22;6392;44.644;11.448;2022-11-15T05:02:35;7.00;99.90
12655;DHT22;6392;44.644;11.448;2022-11-15T05:05:20;7.00;99.90
12655;DHT22;6392;44.644;11.448;2022-11-15T05:07:49;7.00;99.90
12655;DHT22;6392;44.644;11.448;2022-11-15T05:10:16;7.00;99.90
12655;DHT22;6392;44.644;11.448;2022-11-15T05:12:43;7.00;99.90
12655;DHT22;6392;44.644;11.448;2022-11-15T05:15:10;7.00;99.90
12655;DHT22;6392;44.644;11.448;2022-11-15T05:17:37;6.90;99.90
12655;DHT22;6392;44.644;11.448;2022-11-15T05:20:06;6.70;99.90
12655;DHT22;6392;44.644;11.448;2022-11-15T05:22:33;6.50;99.90
12655;DHT22;6392;44.644;11.448;2022-11-15T05:25:01;6.60;99.90
12655;DHT22;6392;44.644;11.448;2022-11-15T05:27:29;6.80;99.90
12655;DHT22;6392;44.644;11.448;2022-11-15T05:29:56;6.90;99.90
12655;DHT22;6392;44.644;11.448;2022-11-15T05:32:23;7.00;99.90
12655;DHT22;6392;44.644;11.448;2022-11-15T05:34:51;7.10;99.90
12655;DHT22;6392;44.644;11.448;2022-11-15T05:37:18;7.20;99.90
12655;DHT22;6392;44.644;11.448;2022-11-15T05:39:46;7.20;99.90
12655;DHT22;6392;44.644;11.448;2022-11-15T05:42:15;7.10;99.90
12655;DHT22;6392;44.644;11.448;2022-11-15T05:44:46;7.10;99.90
12655;DHT22;6392;44.644;11.448;2022-11-15T05:47:17;7.10;99.90
12655;DHT22;6392;44.644;11.448;2022-11-15T05:49:47;7.20;99.90
12655;DHT22;6392;44.644;11.448;2022-11-15T05:52:17;7.20;99.90
12655;DHT22;6392;44.644;11.448;2022-11-15T05:54:45;7.30;99.90
12655;DHT22;6392;44.644;11.448;2022-11-15T05:57:14;7.30;99.90
12655;DHT22;6392;44.644;11.448;2022-11-15T05:59:42;7.40;99.90
12655;DHT22;6392;44.644;11.448;2022-11-15T06:02:10;7.40;99.90
12655;DHT22;6392;44.644;11.448;2022-11-15T06:04:37;7.40;99.90
12655;DHT22;6392;44.644;11.448;2022-11-15T06:07:04;7.50;99.90
12655;DHT22;6392;44.644;11.448;2022-11-15T06:09:32;7.50;99.90
12655;DHT22;6392;44.644;11.448;2022-11-15T06:11:59;7.50;99.90
12655;DHT22;6392;44.644;11.448;2022-11-15T06:14:27;7.60;99.90
12655;DHT22;6392;44.644;11.448;2022-11-15T06:16:55;8.30;99.90
12655;DHT22;6392;44.644;11.448;2022-11-15T06:19:22;7.70;99.90
12655;DHT22;6392;44.644;11.448;2022-11-15T06:21:49;7.70;99.90
12655;DHT22;6392;44.644;11.448;2022-11-15T06:24:16;7.70;99.90
12655;DHT22;6392;44.644;11.448;2022-11-15T06:26:43;7.80;99.90
12655;DHT22;6392;44.644;11.448;2022-11-15T06:29:10;7.90;99.90
12655;DHT22;6392;44.644;11.448;2022-11-15T06:31:39;7.90;99.90
12655;DHT22;6392;44.644;11.448;2022-11-15T06:34:06;8.00;99.90
12655;DHT22;6392;44.644;11.448;2022-11-15T06:36:34;8.00;99.90
12655;DHT22;6392;44.644;11.448;2022-11-15T06:39:02;8.00;99.90
12655;DHT22;6392;44.644;11.448;2022-11-15T06:41:29;8.00;99.90
12655;DHT22;6392;44.644;11.448;2022-11-15T06:43:57;8.00;99.90
12655;DHT22;6392;44.644;11.448;2022-11-15T06:46:24;8.00;99.90
12655;DHT22;6392;44.644;11.448;2022-11-15T06:48:53;8.00;99.90
12655;DHT22;6392;44.644;11.448;2022-11-15T06:51:20;8.00;99.90
12655;DHT22;6392;44.644;11.448;2022-11-15T06:53:47;8.00;99.90
12655;DHT22;6392;44.644;11.448;2022-11-15T06:56:14;8.00;99.90
12655;DHT22;6392;44.644;11.448;2022-11-15T06:58:41;8.00;99.90
12655;DHT22;6392;44.644;11.448;2022-11-15T07:01:10;8.00;99.90
12655;DHT22;6392;44.644;11.448;2022-11-15T07:03:40;8.00;99.90
12655;DHT22;6392;44.644;11.448;2022-11-15T07:06:09;8.00;99.90
12655;DHT22;6392;44.644;11.448;2022-11-15T07:08:36;8.10;99.90
12655;DHT22;6392;44.644;11.448;2022-11-15T07:11:06;8.10;99.90
12655;DHT22;6392;44.644;11.448;2022-11-15T07:13:34;8.20;99.90
12655;DHT22;6392;44.644;11.448;2022-11-15T07:16:02;8.20;99.90
12655;DHT22;6392;44.644;11.448;2022-11-15T07:18:29;8.20;99.90
12655;DHT22;6392;44.644;11.448;2022-11-15T07:21:00;8.30;99.90
12655;DHT22;6392;44.644;11.448;2022-11-15T07:23:29;8.30;99.90
12655;DHT22;6392;44.644;11.448;2022-11-15T07:25:57;8.40;99.90
12655;DHT22;6392;44.644;11.448;2022-11-15T07:28:25;8.50;99.90
12655;DHT22;6392;44.644;11.448;2022-11-15T07:30:52;8.50;99.90
12655;DHT22;6392;44.644;11.448;2022-11-15T07:33:19;8.60;99.90
12655;DHT22;6392;44.644;11.448;2022-11-15T07:35:46;8.60;99.90
12655;DHT22;6392;44.644;11.448;2022-11-15T07:38:15;8.60;99.90
12655;DHT22;6392;44.644;11.448;2022-11-15T07:40:46;8.60;99.90
12655;DHT22;6392;44.644;11.448;2022-11-15T07:43:14;8.60;99.90
12655;DHT22;6392;44.644;11.448;2022-11-15T07:45:42;8.60;99.90
12655;DHT22;6392;44.644;11.448;2022-11-15T07:48:09;8.70;99.90
12655;DHT22;6392;44.644;11.448;2022-11-15T07:50:40;8.60;99.90
12655;DHT22;6392;44.644;11.448;2022-11-15T07:53:09;8.70;99.90
12655;DHT22;6392;44.644;11.448;2022-11-15T07:55:37;8.70;99.90
12655;DHT22;6392;44.644;11.448;2022-11-15T07:58:07;8.70;99.90
12655;DHT22;6392;44.644;11.448;2022-11-15T08:00:34;8.80;99.90
12655;DHT22;6392;44.644;11.448;2022-11-15T08:03:03;8.80;99.90
12655;DHT22;6392;44.644;11.448;2022-11-15T08:05:30;8.80;99.90
12655;DHT22;6392;44.644;11.448;2022-11-15T08:07:58;8.80;99.90
12655;DHT22;6392;44.644;11.448;2022-11-15T08:10:25;8.90;99.90
12655;DHT22;6392;44.644;11.448;2022-11-15T08:12:59;8.90;99.90
12655;DHT22;6392;44.644;11.448;2022-11-15T08:15:28;9.00;99.90
12655;DHT22;6392;44.644;11.448;2022-11-15T08:17:56;9.10;99.90
12655;DHT22;6392;44.644;11.448;2022-11-15T08:20:24;9.20;99.90
12655;DHT22;6392;44.644;11.448;2022-11-15T08:22:51;9.20;99.90
12655;DHT22;6392;44.644;11.448;2022-11-15T08:25:18;9.30;99.90
12655;DHT22;6392;44.644;11.448;2022-11-15T08:27:45;9.30;99.90
12655;DHT22;6392;44.644;11.448;2022-11-15T08:30:12;9.30;99.90
12655;DHT22;6392;44.644;11.448;2022-11-15T08:32:43;9.40;99.90
12655;DHT22;6392;44.644;11.448;2022-11-15T08:35:10;9.40;99.90
12655;DHT22;6392;44.644;11.448;2022-11-15T08:37:37;9.40;99.90
12655;DHT22;6392;44.644;11.448;2022-11-15T08:40:05;9.40;99.90
12655;DHT22;6392;44.644;11.448;2022-11-15T08:42:33;9.40;99.90
12655;DHT22;6392;44.644;11.448;2022-11-15T08:45:00;9.40;99.90
12655;DHT22;6392;44.644;11.448;2022-11-15T08:47:27;9.50;99.90
12655;DHT22;6392;44.644;11.448;2022-11-15T08:49:55;9.60;99.90
12655;DHT22;6392;44.644;11.448;2022-11-15T08:52:23;9.70;99.90
12655;DHT22;6392;44.644;11.448;2022-11-15T08:54:50;9.70;99.90
12655;DHT22;6392;44.644;11.448;2022-11-15T08:57:17;9.70;99.90
12655;DHT22;6392;44.644;11.448;2022-11-15T08:59:44;9.70;99.90
12655;DHT22;6392;44.644;11.448;2022-11-15T09:02:12;9.80;99.90
12655;DHT22;6392;44.644;11.448;2022-11-15T09:04:40;9.80;99.90
12655;DHT22;6392;44.644;11.448;2022-11-15T09:07:10;9.90;99.90
12655;DHT22;6392;44.644;11.448;2022-11-15T09:09:37;9.90;99.90
12655;DHT22;6392;44.644;11.448;2022-11-15T09:12:05;9.90;99.90
12655;DHT22;6392;44.644;11.448;2022-11-15T09:14:33;9.90;99.90
12655;DHT22;6392;44.644;11.448;2022-11-15T09:17:00;9.90;99.90
12655;DHT22;6392;44.644;11.448;2022-11-15T09:19:27;9.90;99.90
12655;DHT22;6392;44.644;11.448;2022-11-15T09:21:55;10.00;99.90
12655;DHT22;6392;44.644;11.448;2022-11-15T09:24:23;10.00;99.90
12655;DHT22;6392;44.644;11.448;2022-11-15T09:26:50;10.00;99.90
12655;DHT22;6392;44.644;11.448;2022-11-15T09:29:17;10.00;99.90
12655;DHT22;6392;44.644;11.448;2022-11-15T09:31:44;10.10;99.90
12655;DHT22;6392;44.644;11.448;2022-11-15T09:34:12;10.10;99.90
12655;DHT22;6392;44.644;11.448;2022-11-15T09:36:39;10.10;99.90
12655;DHT22;6392;44.644;11.448;2022-11-15T09:39:06;10.20;99.90
12655;DHT22;6392;44.644;11.448;2022-11-15T09:44:41;10.20;99.90
12655;DHT22;6392;44.644;11.448;2022-11-15T09:50:08;10.30;99.90
12655;DHT22;6392;44.644;11.448;2022-11-15T09:52:36;10.30;99.90
12655;DHT22;6392;44.644;11.448;2022-11-15T09:55:09;10.40;99.90
12655;DHT22;6392;44.644;11.448;2022-11-15T09:57:44;10.40;99.90
12655;DHT22;6392;44.644;11.448;2022-11-15T10:00:18;10.50;99.90
12655;DHT22;6392;44.644;11.448;2022-11-15T10:02:57;10.50;99.90
12655;DHT22;6392;44.644;11.448;2022-11-15T10:05:29;10.50;99.90
12655;DHT22;6392;44.644;11.448;2022-11-15T10:08:01;10.50;99.90
12655;DHT22;6392;44.644;11.448;2022-11-15T10:10:35;10.60;99.90
12655;DHT22;6392;44.644;11.448;2022-11-15T10:13:09;10.60;99.90
12655;DHT22;6392;44.644;11.448;2022-11-15T10:15:42;10.60;99.90
12655;DHT22;6392;44.644;11.448;2022-11-15T10:18:16;10.60;99.90
12655;DHT22;6392;44.644;11.448;2022-11-15T10:20:48;10.70;99.90
12655;DHT22;6392;44.644;11.448;2022-11-15T10:23:18;10.70;99.90
12655;DHT22;6392;44.644;11.448;2022-11-15T10:25:46;10.80;99.90
12655;DHT22;6392;44.644;11.448;2022-11-15T10:28:17;10.80;99.90
12655;DHT22;6392;44.644;11.448;2022-11-15T10:30:46;10.80;99.90
12655;DHT22;6392;44.644;11.448;2022-11-15T10:33:26;10.80;99.90
12655;DHT22;6392;44.644;11.448;2022-11-15T10:36:18;10.80;99.90
12655;DHT22;6392;44.644;11.448;2022-11-15T10:38:54;10.90;99.90
12655;DHT22;6392;44.644;11.448;2022-11-15T10:41:28;10.90;99.90
12655;DHT22;6392;44.644;11.448;2022-11-15T10:44:24;10.90;99.90
12655;DHT22;6392;44.644;11.448;2022-11-15T10:47:20;11.00;99.90
12655;DHT22;6392;44.644;11.448;2022-11-15T10:49:57;11.00;99.90
12655;DHT22;6392;44.644;11.448;2022-11-15T10:52:25;11.00;99.90
12655;DHT22;6392;44.644;11.448;2022-11-15T10:54:55;11.00;99.90
12655;DHT22;6392;44.644;11.448;2022-11-15T10:57:26;11.10;99.90
12655;DHT22;6392;44.644;11.448;2022-11-15T10:59:57;11.10;99.90
12655;DHT22;6392;44.644;11.448;2022-11-15T11:02:34;11.10;99.90
12655;DHT22;6392;44.644;11.448;2022-11-15T11:05:04;11.10;99.90
12655;DHT22;6392;44.644;11.448;2022-11-15T11:07:33;11.10;99.90
12655;DHT22;6392;44.644;11.448;2022-11-15T11:10:03;11.10;99.90
12655;DHT22;6392;44.644;11.448;2022-11-15T11:12:32;11.20;99.90
12655;DHT22;6392;44.644;11.448;2022-11-15T11:15:10;11.20;99.90
12655;DHT22;6392;44.644;11.448;2022-11-15T11:17:56;11.20;99.90
12655;DHT22;6392;44.644;11.448;2022-11-15T11:20:28;11.20;99.90
12655;DHT22;6392;44.644;11.448;2022-11-15T11:23:19;11.20;99.90
12655;DHT22;6392;44.644;11.448;2022-11-15T11:25:56;11.20;99.90
12655;DHT22;6392;44.644;11.448;2022-11-15T11:28:39;11.20;99.90
12655;DHT22;6392;44.644;11.448;2022-11-15T11:31:20;11.30;99.90
12655;DHT22;6392;44.644;11.448;2022-11-15T11:33:53;11.30;99.90
12655;DHT22;6392;44.644;11.448;2022-11-15T11:36:27;11.30;99.90
12655;DHT22;6392;44.644;11.448;2022-11-15T11:39:16;11.30;99.90
12655;DHT22;6392;44.644;11.448;2022-11-15T11:41:51;11.20;99.90
12655;DHT22;6392;44.644;11.448;2022-11-15T11:44:33;11.30;99.90
12655;DHT22;6392;44.644;11.448;2022-11-15T11:47:08;11.30;99.90
12655;DHT22;6392;44.644;11.448;2022-11-15T11:49:41;11.30;99.90
12655;DHT22;6392;44.644;11.448;2022-11-15T11:52:14;11.40;99.90
12655;DHT22;6392;44.644;11.448;2022-11-15T11:54:49;11.30;99.90
12655;DHT22;6392;44.644;11.448;2022-11-15T11:57:28;11.30;99.90
12655;DHT22;6392;44.644;11.448;2022-11-15T12:00:03;11.30;99.90
12655;DHT22;6392;44.644;11.448;2022-11-15T12:02:36;11.40;99.90
12655;DHT22;6392;44.644;11.448;2022-11-15T12:05:10;11.40;99.90
12655;DHT22;6392;44.644;11.448;2022-11-15T12:07:39;11.40;99.90
12655;DHT22;6392;44.644;11.448;2022-11-15T12:10:16;11.40;99.90
12655;DHT22;6392;44.644;11.448;2022-11-15T12:12:50;11.40;99.90
12655;DHT22;6392;44.644;11.448;2022-11-15T12:15:23;11.40;99.90
12655;DHT22;6392;44.644;11.448;2022-11-15T12:17:53;11.40;99.90
12655;DHT22;6392;44.644;11.448;2022-11-15T12:20:22;11.40;99.90
12655;DHT22;6392;44.644;11.448;2022-11-15T12:22:55;11.30;99.90
12655;DHT22;6392;44.644;11.448;2022-11-15T12:25:29;11.30;99.90
12655;DHT22;6392;44.644;11.448;2022-11-15T12:28:01;11.40;99.90
12655;DHT22;6392;44.644;11.448;2022-11-15T12:30:42;11.40;99.90
12655;DHT22;6392;44.644;11.448;2022-11-15T12:33:30;11.40;99.90
12655;DHT22;6392;44.644;11.448;2022-11-15T12:35:59;11.40;99.90
12655;DHT22;6392;44.644;11.448;2022-11-15T12:38:54;11.40;99.90
12655;DHT22;6392;44.644;11.448;2022-11-15T12:41:23;11.50;99.90
12655;DHT22;6392;44.644;11.448;2022-11-15T12:43:51;11.40;99.90
12655;DHT22;6392;44.644;11.448;2022-11-15T12:49:10;11.40;99.90
12655;DHT22;6392;44.644;11.448;2022-11-15T12:52:06;11.40;99.90
12655;DHT22;6392;44.644;11.448;2022-11-15T12:54:57;11.40;99.90
12655;DHT22;6392;44.644;11.448;2022-11-15T12:57:39;11.50;99.90
12655;DHT22;6392;44.644;11.448;2022-11-15T13:03:19;11.50;99.90
12655;DHT22;6392;44.644;11.448;2022-11-15T13:05:57;11.50;99.90
12655;DHT22;6392;44.644;11.448;2022-11-15T13:08:45;11.40;99.90
12655;DHT22;6392;44.644;11.448;2022-11-15T13:11:42;11.50;99.90
12655;DHT22;6392;44.644;11.448;2022-11-15T13:14:38;11.40;99.90
12655;DHT22;6392;44.644;11.448;2022-11-15T13:17:33;11.40;99.90
12655;DHT22;6392;44.644;11.448;2022-11-15T13:20:17;11.40;99.90
12655;DHT22;6392;44.644;11.448;2022-11-15T13:22:47;11.40;99.90
12655;DHT22;6392;44.644;11.448;2022-11-15T13:25:33;11.40;99.90
12655;DHT22;6392;44.644;11.448;2022-11-15T13:28:11;11.50;99.90
12655;DHT22;6392;44.644;11.448;2022-11-15T13:30:40;11.50;99.90
12655;DHT22;6392;44.644;11.448;2022-11-15T13:33:10;11.50;99.90
12655;DHT22;6392;44.644;11.448;2022-11-15T13:35:40;11.50;99.90
12655;DHT22;6392;44.644;11.448;2022-11-15T13:38:27;11.50;99.90
12655;DHT22;6392;44.644;11.448;2022-11-15T13:40:55;11.50;99.90
12655;DHT22;6392;44.644;11.448;2022-11-15T13:43:34;11.50;99.90
12655;DHT22;6392;44.644;11.448;2022-11-15T13:46:06;11.50;99.90
12655;DHT22;6392;44.644;11.448;2022-11-15T13:48:34;11.50;99.90
12655;DHT22;6392;44.644;11.448;2022-11-15T13:51:02;11.50;99.90
12655;DHT22;6392;44.644;11.448;2022-11-15T13:53:33;11.40;99.90
12655;DHT22;6392;44.644;11.448;2022-11-15T13:56:02;11.40;99.90
12655;DHT22;6392;44.644;11.448;2022-11-15T13:58:30;11.30;99.90
12655;DHT22;6392;44.644;11.448;2022-11-15T14:01:00;11.30;99.90
12655;DHT22;6392;44.644;11.448;2022-11-15T14:03:28;11.40;99.90
12655;DHT22;6392;44.644;11.448;2022-11-15T14:06:04;11.40;99.90
12655;DHT22;6392;44.644;11.448;2022-11-15T14:08:34;11.40;99.90
12655;DHT22;6392;44.644;11.448;2022-11-15T14:11:12;11.40;99.90
12655;DHT22;6392;44.644;11.448;2022-11-15T14:13:40;11.40;99.90
12655;DHT22;6392;44.644;11.448;2022-11-15T14:16:16;11.40;99.90
12655;DHT22;6392;44.644;11.448;2022-11-15T14:18:45;11.40;99.90
12655;DHT22;6392;44.644;11.448;2022-11-15T14:21:14;11.30;99.90
12655;DHT22;6392;44.644;11.448;2022-11-15T14:23:42;11.30;99.90
12655;DHT22;6392;44.644;11.448;2022-11-15T14:26:26;11.30;99.90
12655;DHT22;6392;44.644;11.448;2022-11-15T14:28:54;11.30;99.90
12655;DHT22;6392;44.644;11.448;2022-11-15T14:31:21;11.30;99.90
12655;DHT22;6392;44.644;11.448;2022-11-15T14:33:48;11.30;99.90
12655;DHT22;6392;44.644;11.448;2022-11-15T14:36:17;11.30;99.90
12655;DHT22;6392;44.644;11.448;2022-11-15T14:38:47;11.30;99.90
12655;DHT22;6392;44.644;11.448;2022-11-15T14:41:19;11.30;99.90
12655;DHT22;6392;44.644;11.448;2022-11-15T14:43:46;11.30;99.90
12655;DHT22;6392;44.644;11.448;2022-11-15T14:46:13;11.30;99.90
12655;DHT22;6392;44.644;11.448;2022-11-15T14:48:41;11.30;99.90
12655;DHT22;6392;44.644;11.448;2022-11-15T14:51:12;11.20;99.90
12655;DHT22;6392;44.644;11.448;2022-11-15T14:53:40;11.20;99.90
12655;DHT22;6392;44.644;11.448;2022-11-15T14:56:09;11.20;99.90
12655;DHT22;6392;44.644;11.448;2022-11-15T14:58:36;11.20;99.90
12655;DHT22;6392;44.644;11.448;2022-11-15T15:01:11;11.20;99.90
12655;DHT22;6392;44.644;11.448;2022-11-15T15:03:39;11.20;99.90
12655;DHT22;6392;44.644;11.448;2022-11-15T15:06:07;11.20;99.90
12655;DHT22;6392;44.644;11.448;2022-11-15T15:08:35;11.20;99.90
12655;DHT22;6392;44.644;11.448;2022-11-15T15:11:06;11.20;99.90
12655;DHT22;6392;44.644;11.448;2022-11-15T15:13:37;11.20;99.90
12655;DHT22;6392;44.644;11.448;2022-11-15T15:16:05;11.20;99.90
12655;DHT22;6392;44.644;11.448;2022-11-15T15:18:32;11.20;99.90
12655;DHT22;6392;44.644;11.448;2022-11-15T15:20:59;11.20;99.90
12655;DHT22;6392;44.644;11.448;2022-11-15T15:23:32;11.20;99.90
12655;DHT22;6392;44.644;11.448;2022-11-15T15:26:01;11.20;99.90
12655;DHT22;6392;44.644;11.448;2022-11-15T15:28:28;11.20;99.90
12655;DHT22;6392;44.644;11.448;2022-11-15T15:30:57;11.20;99.90
12655;DHT22;6392;44.644;11.448;2022-11-15T15:33:24;11.20;99.90
12655;DHT22;6392;44.644;11.448;2022-11-15T15:35:52;11.20;99.90
12655;DHT22;6392;44.644;11.448;2022-11-15T15:38:19;11.10;99.90
12655;DHT22;6392;44.644;11.448;2022-11-15T15:40:47;11.20;99.90
12655;DHT22;6392;44.644;11.448;2022-11-15T15:43:14;11.20;99.90
12655;DHT22;6392;44.644;11.448;2022-11-15T15:45:42;11.20;99.90
12655;DHT22;6392;44.644;11.448;2022-11-15T15:48:13;11.20;99.90
12655;DHT22;6392;44.644;11.448;2022-11-15T15:50:41;11.20;99.90
12655;DHT22;6392;44.644;11.448;2022-11-15T15:53:10;11.20;99.90
12655;DHT22;6392;44.644;11.448;2022-11-15T15:55:37;11.20;99.90
12655;DHT22;6392;44.644;11.448;2022-11-15T15:58:05;11.10;99.90
12655;DHT22;6392;44.644;11.448;2022-11-15T16:00:33;11.10;99.90
12655;DHT22;6392;44.644;11.448;2022-11-15T16:03:00;11.10;99.90
12655;DHT22;6392;44.644;11.448;2022-11-15T16:05:29;11.10;99.90
12655;DHT22;6392;44.644;11.448;2022-11-15T16:07:56;11.10;99.90
12655;DHT22;6392;44.644;11.448;2022-11-15T16:10:25;11.00;99.90
12655;DHT22;6392;44.644;11.448;2022-11-15T16:12:52;11.00;99.90
12655;DHT22;6392;44.644;11.448;2022-11-15T16:15:22;11.10;99.90
12655;DHT22;6392;44.644;11.448;2022-11-15T16:17:51;11.00;99.90
12655;DHT22;6392;44.644;11.448;2022-11-15T16:20:29;11.00;99.90
12655;DHT22;6392;44.644;11.448;2022-11-15T16:22:57;11.00;99.90
12655;DHT22;6392;44.644;11.448;2022-11-15T16:25:24;11.00;99.90